Terminal Aerodrome Forecast
Issued by NWS Buffalo, NY

Home | Current Version | Previous Version | Text Only | Print | Product List | Glossary On
Versions: 1 2 3 4 5 6 7 8 9 10 11 12 13 14 15 16 17 18 19 20 21 22 23 24 25 26 27 28 29
000
FTUS41 KBUF 012330
TAFBUF
TAF
KBUF 012330Z 0200/0224 21011KT P6SM VCSH BKN050
     FM020100 21008KT P6SM FEW250
     FM021400 23012KT P6SM FEW250
     FM021700 23016G22KT P6SM SCT250
     FM022300 22013KT P6SM BKN100=

USA.gov is the U.S. government's official web portal to all federal, state and local government web resources and services.